Terminal Aerodrome Forecast
Issued by NWS

Home | Current Version | Previous Version | Text Only | Print | Product List | Glossary On
Versions: 1 2 3 4 5 6 7 8 9 10 11 12 13 14
846
FTUS43 KBIS 061120
TAFJMS
TAF
KJMS 061120Z 0612/0712 18007KT P6SM FEW250
     FM061400 24017KT P6SM SCT250
     FM061900 36022G31KT P6SM SCT250
     FM070100 02015KT P6SM SCT250
     FM070300 02008KT P6SM FEW250=

USA.gov is the U.S. government's official web portal to all federal, state and local government web resources and services.